Home > Products > Valid Products > MTR

000
SAUS46 KPDT 220156
MTRMEH
METAR KMEH 220156Z AUTO 27005KT 10SM BKN017 BKN021 OVC027 05/02
A3003 RMK AO2 RAB08E28 SLP178 P0000 T00500022





000
SAUS46 KPDT 220156
MTRMEH
METAR KMEH 220156Z AUTO 27005KT 10SM BKN017 BKN021 OVC027 05/02
A3003 RMK AO2 RAB08E28 SLP178 P0000 T00500022





000
SAUS46 KPDT 220056
MTRMEH
METAR KMEH 220056Z AUTO 00000KT 10SM BKN018 BKN023 OVC028 05/02
A3002 RMK AO2 SLP173 T00500017





000
SAUS46 KPDT 220056
MTRMEH
METAR KMEH 220056Z AUTO 00000KT 10SM BKN018 BKN023 OVC028 05/02
A3002 RMK AO2 SLP173 T00500017





000
SAUS46 KPDT 212356
MTRMEH
METAR KMEH 212356Z AUTO VRB03KT 10SM SCT018 BKN024 OVC030 05/02
A3000 RMK AO2 SLP164 T00500022 10067 20050 51024





000
SAUS46 KPDT 212356
MTRMEH
METAR KMEH 212356Z AUTO VRB03KT 10SM SCT018 BKN024 OVC030 05/02
A3000 RMK AO2 SLP164 T00500022 10067 20050 51024





000
SAUS46 KPDT 212256
MTRMEH
METAR KMEH 212256Z AUTO VRB05KT 10SM BKN019 OVC027 06/02 A2998 RMK
AO2 SLP156 T00560022





000
SAUS46 KPDT 212156
MTRMEH
METAR KMEH 212156Z AUTO 10SM BKN021 OVC030 06/02 A2997 RMK AO2
SLP153 T00560022





000
SAUS46 KPDT 212156
MTRMEH
METAR KMEH 212156Z AUTO 10SM BKN021 OVC030 06/02 A2997 RMK AO2
SLP153 T00560022





000
SAUS46 KPDT 212100 COR
MTRMEH
METAR KMEH 212056Z AUTO VRB04G17KT 10SM BKN020 BKN028 OVC085 06/02
A2992 RMK AO2 SLP138 T00560017 51006





000
SAUS46 KPDT 212057 COR
MTRMEH
METAR KMEH 212056Z AUTO VRB04G17KT 10SM BKN020 BKN028 OVC085 06/02
A2992 RMK AO2 SLP138 T00560017 51006





000
SAUS46 KPDT 211957
MTRMEH
METAR KMEH 211956Z AUTO VRB05KT 10SM BKN022 OVC028 06/02 A2992 RMK
AO2 PRESFR SLP137 T00560017





000
SAUS46 KPDT 211957
MTRMEH
METAR KMEH 211956Z AUTO VRB05KT 10SM BKN022 OVC028 06/02 A2992 RMK
AO2 PRESFR SLP137 T00560017





000
SAUS46 KPDT 211857
MTRMEH
METAR KMEH 211856Z AUTO VRB06KT 10SM BKN025 OVC031 06/02 A2993 RMK
AO2 SLP144 T00610017





000
SAUS46 KPDT 211757
MTRMEH
METAR KMEH 211756Z AUTO 27007KT 10SM BKN023 BKN029 BKN070 07/02
A2990 RMK AO2 SLP133 T00670022 10089 20061 53024





000
SAUS46 KPDT 211656
MTRMEH
METAR KMEH 211656Z AUTO 27008G22KT 230V310 10SM SCT015 OVC021 07/03
A2987 RMK AO2 SLP122 T00670033





000
SAUS46 KPDT 211556
MTRMEH
METAR KMEH 211556Z AUTO VRB06G17KT 10SM OVC013 06/03 A2985 RMK AO2
SLP116 T00610033





000
SAUS46 KPDT 211526
MTRMEH
SPECI KMEH 211525Z AUTO VRB06KT 10SM BKN014 OVC019 07/04 A2984 RMK
AO2 T00670039





000
SAUS46 KPDT 211456
MTRMEH
METAR KMEH 211456Z AUTO 27011G18KT 220V310 10SM BKN016 OVC024 07/04
A2982 RMK AO2 SLP108 T00670039 53013





000
SAUS46 KPDT 211356
MTRMEH
METAR KMEH 211356Z AUTO 27007G16KT 200V320 10SM BKN027 BKN032 OVC048
07/03 A2980 RMK AO2 SLP101 T00720033





000
SAUS46 KPDT 211356
MTRMEH
METAR KMEH 211356Z AUTO 27007G16KT 200V320 10SM BKN027 BKN032 OVC048
07/03 A2980 RMK AO2 SLP101 T00720033





000
SAUS46 KPDT 211306
MTRMEH
SPECI KMEH 211306Z AUTO VRB05G18KT 10SM FEW016 BKN023 OVC043 08/05
A2977 RMK AO2 T00780050





000
SAUS46 KPDT 211306
MTRMEH
SPECI KMEH 211306Z AUTO VRB05G18KT 10SM FEW016 BKN023 OVC043 08/05
A2977 RMK AO2 T00780050





000
SAUS46 KPDT 211256
MTRMEH
METAR KMEH 211256Z AUTO 30007G18KT 240V360 10SM SCT021 BKN031 OVC045
08/04 A2978 RMK AO2 PK WND 29027/1228 SLP093 T00780044





000
SAUS46 KPDT 211256
MTRMEH
METAR KMEH 211256Z AUTO 30007G18KT 240V360 10SM SCT021 BKN031 OVC045
08/04 A2978 RMK AO2 PK WND 29027/1228 SLP093 T00780044





000
SAUS46 KPDT 211255
MTRMEH
SPECI KMEH 211251Z AUTO 28008G19KT 250V010 10SM SCT023 BKN034 OVC045
08/04 A2978 RMK AO2 PK WND 29027/1228





000
SAUS46 KPDT 211255
MTRMEH
SPECI KMEH 211251Z AUTO 28008G19KT 250V010 10SM SCT023 BKN034 OVC045
08/04 A2978 RMK AO2 PK WND 29027/1228





000
SAUS46 KPDT 211156
MTRMEH
METAR KMEH 211156Z AUTO 28008G24KT 240V320 10SM BKN015 OVC022 09/06
A2975 RMK AO2 RAB06E18 PRESRR SLP081 P0001 60004 70190 T00890061
10100 20039 53035





000
SAUS46 KPDT 211156
MTRMEH
METAR KMEH 211156Z AUTO 28008G24KT 240V320 10SM BKN015 OVC022 09/06
A2975 RMK AO2 RAB06E18 PRESRR SLP081 P0001 60004 70190 T00890061
10100 20039 53035





000
SAUS46 KPDT 211058
MTRMEH
METAR KMEH 211056Z AUTO 27008KT 240V030 10SM OVC018 09/07 A2970 RMK
AO2 RAB06E52 SLP064 P0001 T00890067





000
SAUS46 KPDT 211058
MTRMEH
METAR KMEH 211056Z AUTO 27008KT 240V030 10SM OVC018 09/07 A2970 RMK
AO2 RAB06E52 SLP064 P0001 T00890067





000
SAUS46 KPDT 211026
MTRMEH
SPECI KMEH 211026Z AUTO 27008KT 240V340 7SM -RA BKN026 OVC031 09/06
A2970 RMK AO2 RAB06 P0000 T00940056





000
SAUS46 KPDT 210957
MTRMEH
METAR KMEH 210956Z AUTO VRB05KT 10SM BKN036 OVC045 10/05 A2968 RMK
AO2 PRESRR SLP054 T01000050





000
SAUS46 KPDT 210957
MTRMEH
METAR KMEH 210956Z AUTO VRB05KT 10SM BKN036 OVC045 10/05 A2968 RMK
AO2 PRESRR SLP054 T01000050





000
SAUS46 KPDT 210856
MTRMEH
METAR KMEH 210856Z AUTO VRB03KT 10SM OVC033 08/06 A2963 RMK AO2
SLP042 60002 T00780056 56014





000
SAUS46 KPDT 210756
MTRMEH
METAR KMEH 210756Z AUTO VRB03KT 10SM OVC030 07/06 A2963 RMK AO2
SLP042 T00720056 400720006





000
SAUS46 KPDT 210656
MTRMEH
METAR KMEH 210656Z AUTO 00000KT 7SM OVC032 04/04 A2966 RMK AO2 RAE21
SLP056 P0002 T00390039





000
SAUS46 KPDT 210647
MTRMEH
SPECI KMEH 210646Z AUTO 00000KT 8SM OVC030 04/04 A2966 RMK AO2 RAE21
P0002 T00440039





000
SAUS46 KPDT 210647
MTRMEH
SPECI KMEH 210646Z AUTO 00000KT 8SM OVC030 04/04 A2966 RMK AO2 RAE21
P0002 T00440039





000
SAUS46 KPDT 210556
MTRMEH
METAR KMEH 210556Z AUTO 00000KT 3SM RA BR OVC026 05/04 A2968 RMK AO2
SLP062 P0017 60086 T00500044 10056 20017 55001





000
SAUS46 KPDT 210543
MTRMEH
SPECI KMEH 210543Z AUTO 00000KT 4SM -RA BR FEW015 OVC028 06/04 A2968
RMK AO2 P0014 T00560044





000
SAUS46 KPDT 210527
MTRMEH
SPECI KMEH 210522Z AUTO VRB03KT 3SM RA BR OVC032 06/04 A2967 RMK AO2
P0010 T00560044





000
SAUS46 KPDT 210514
MTRMEH
SPECI KMEH 210514Z AUTO VRB04KT 2 1/2SM RA BR FEW027 OVC032 06/04
A2967 RMK AO2 P0007 T00560044





000
SAUS46 KPDT 210510
MTRMEH
SPECI KMEH 210506Z AUTO VRB03KT 1 3/4SM RA BR OVC034 06/04 A2968 RMK
AO2 P0004 T00560044





000
SAUS46 KPDT 210457
MTRMEH
METAR KMEH 210456Z AUTO VRB06KT 5SM RA BR OVC034 06/04 A2967 RMK AO2
SLP058 P0010 T00560044





000
SAUS46 KPDT 210457
MTRMEH
METAR KMEH 210456Z AUTO VRB06KT 5SM RA BR OVC034 06/04 A2967 RMK AO2
SLP058 P0010 T00560044





000
SAUS46 KPDT 210356
MTRMEH
METAR KMEH 210356Z AUTO 00000KT 3SM RA BR OVC033 04/03 A2968 RMK AO2
SLP065 P0019 T00390033





000
SAUS46 KPDT 210356
MTRMEH
METAR KMEH 210356Z AUTO 00000KT 3SM RA BR OVC033 04/03 A2968 RMK AO2
SLP065 P0019 T00390033





000
SAUS46 KPDT 210353
MTRMEH
SPECI KMEH 210352Z AUTO 00000KT 2 1/2SM RA BR OVC033 04/03 A2968 RMK
AO2 P0017





000
SAUS46 KPDT 210353
MTRMEH
SPECI KMEH 210352Z AUTO 00000KT 2 1/2SM RA BR OVC033 04/03 A2968 RMK
AO2 P0017





000
SAUS46 KPDT 210335
MTRMEH
SPECI KMEH 210334Z AUTO 00000KT 4SM RA BR OVC035 04/03 A2970 RMK AO2
P0012 T00390028





000
SAUS46 KPDT 210335
MTRMEH
SPECI KMEH 210334Z AUTO 00000KT 4SM RA BR OVC035 04/03 A2970 RMK AO2
P0012 T00390028





000
SAUS46 KPDT 210256
MTRMEH
METAR KMEH 210256Z AUTO 00000KT 2 1/2SM RA BR OVC033 03/02 A2970 RMK
AO2 SLP071 P0017 60040 T00330022 56009





000
SAUS46 KPDT 210156
MTRMEH
METAR KMEH 210156Z AUTO 00000KT 3SM RA BR OVC033 03/02 A2971 RMK AO2
SLP075 P0012 T00280017





000
SAUS46 KPDT 210125
MTRMEH
SPECI KMEH 210121Z AUTO 00000KT 4SM -RA BR OVC031 02/02 A2972 RMK
AO2 P0004 T00220017





000
SAUS46 KPDT 210105
MTRMEH
SPECI KMEH 210105Z AUTO 00000KT 3SM -RA BR OVC029 02/02 A2971 RMK
AO2 P0001 T00220017





000
SAUS46 KPDT 210105
MTRMEH
SPECI KMEH 210105Z AUTO 00000KT 3SM -RA BR OVC029 02/02 A2971 RMK
AO2 P0001 T00220017





000
SAUS46 KPDT 210056
MTRMEH
METAR KMEH 210056Z AUTO 00000KT 1 3/4SM -RA BR BKN025 OVC031 02/01
A2972 RMK AO2 SLP077 P0011 T00220011





000
SAUS46 KPDT 210041
MTRMEH
SPECI KMEH 210041Z AUTO 00000KT 1 3/4SM RA BR OVC028 02/01 A2973 RMK
AO2 P0008 T00220011





000
SAUS46 KPDT 210029
MTRMEH
SPECI KMEH 210029Z AUTO 00000KT 2SM -RA BR BKN028 OVC033 02/01 A2974
RMK AO2 P0005 T00220011





000
SAUS46 KPDT 202356
MTRMEH
METAR KMEH 202356Z AUTO 00000KT 2 1/2SM RA BR OVC030 02/01 A2973 RMK
AO2 SLP085 P0016 60076 T00170006 10022 20017 58001





000
SAUS46 KPDT 202356
MTRMEH
SPECI KMEH 202352Z AUTO 00000KT 2 1/2SM RA BR OVC030 02/01 A2974 RMK
AO2 P0015





000
SAUS46 KPDT 202335
MTRMEH
SPECI KMEH 202334Z AUTO 00000KT 2SM RA BR OVC028 02/01 A2974 RMK AO2
P0010 T00170006





000
SAUS46 KPDT 202327
MTRMEH
SPECI KMEH 202327Z AUTO 00000KT 3SM RA BR OVC028 02/01 A2974 RMK AO2
P0008 T00170011





000
SAUS46 KPDT 202313
MTRMEH
SPECI KMEH 202313Z AUTO 00000KT 2SM RA BR OVC026 02/01 A2974 RMK AO2
P0005 T00170011





000
SAUS46 KPDT 202306
MTRMEH
SPECI KMEH 202306Z AUTO VRB04KT 1 3/4SM RA BR OVC026 02/01 A2974 RMK
AO2 P0003 T00220011





000
SAUS46 KPDT 202256
MTRMEH
METAR KMEH 202256Z AUTO 00000KT 2SM RA BR OVC022 02/01 A2973 RMK AO2
SLP086 P0019 T00220011





000
SAUS46 KPDT 202253
MTRMEH
SPECI KMEH 202253Z AUTO 00000KT 2SM RA BR OVC022 02/01 A2974 RMK AO2
P0018





000
SAUS46 KPDT 202224
MTRMEH
SPECI KMEH 202224Z AUTO 00000KT 1 1/2SM RA BR FEW013 OVC021 02/01
A2976 RMK AO2 P0007 T00170011





000
SAUS46 KPDT 202156
MTRMEH
METAR KMEH 202156Z AUTO 00000KT 2SM RA BR OVC024 02/01 A2976 RMK AO2
SLP096 P0014 T00170011





000
SAUS46 KPDT 202135
MTRMEH
SPECI KMEH 202134Z AUTO 00000KT 2SM RA BR OVC024 02/01 A2977 RMK AO2
P0009 T00170011





000
SAUS46 KPDT 202127
MTRMEH
SPECI KMEH 202125Z AUTO 00000KT 1 3/4SM RA BR OVC025 02/01 A2978 RMK
AO2 P0007 T00170011





000
SAUS46 KPDT 202121
MTRMEH
SPECI KMEH 202117Z AUTO 00000KT 2SM RA BR OVC025 02/01 A2978 RMK AO2
P0005 T00170011





000
SAUS46 KPDT 202056
MTRMEH
METAR KMEH 202056Z AUTO 00000KT 1 3/4SM RA BR OVC022 02/01 A2978 RMK
AO2 SLP103 P0013 60027 T00170011 58014





000
SAUS46 KPDT 202049
MTRMEH
SPECI KMEH 202047Z AUTO 00000KT 1 1/2SM RA BR OVC022 02/01 A2978 RMK
AO2 P0011 T00170011





000
SAUS46 KPDT 202024
MTRMEH
SPECI KMEH 202020Z AUTO 00000KT 2SM RA BR FEW010 FEW016 OVC022 02/01
A2980 RMK AO2 P0003 T00170011





000
SAUS46 KPDT 201957
MTRMEH
METAR KMEH 201956Z AUTO 00000KT 4SM -RA BR FEW009 OVC026 02/01 A2980
RMK AO2 SLP110 P0007 T00220011





000
SAUS46 KPDT 201947
MTRMEH
SPECI KMEH 201947Z AUTO 00000KT 3SM -RA BR FEW009 BKN025 OVC032
02/01 A2980 RMK AO2 P0006 T00220011





000
SAUS46 KPDT 201943
MTRMEH
SPECI KMEH 201943Z AUTO 00000KT 2 1/2SM -RA BR BKN025 OVC032 02/01
A2980 RMK AO2 P0006 T00220011





000
SAUS46 KPDT 201923
MTRMEH
SPECI KMEH 201923Z AUTO 00000KT 1 3/4SM -RA BR OVC025 02/01 A2981
RMK AO2 P0003 T00220011





000
SAUS46 KPDT 201856
MTRMEH
METAR KMEH 201856Z AUTO 00000KT 2SM -RA BR BKN026 OVC034 02/01 A2981
RMK AO2 SLP112 P0007 T00220011





000
SAUS46 KPDT 201850
MTRMEH
SPECI KMEH 201849Z AUTO 00000KT 2SM -RA BR OVC026 02/01 A2981 RMK
AO2 P0007 T00220011





000
SAUS46 KPDT 201823
MTRMEH
SPECI KMEH 201823Z AUTO 00000KT 3SM -RA BR BKN025 OVC037 02/01 A2982
RMK AO2 P0004 T00220011





000
SAUS46 KPDT 201811
MTRMEH
SPECI KMEH 201811Z AUTO 00000KT 1 1/2SM -RA BR FEW008 OVC019 02/01
A2982 RMK AO2 P0003 T00170006





000
SAUS46 KPDT 201757
MTRMEH
METAR KMEH 201756Z AUTO 00000KT 1 1/2SM -RA BR BKN021 OVC025 02/02
A2983 RMK AO2 SLP122 P0012 60024 T00170017 10017 20011 51001





000
SAUS46 KPDT 201710
MTRMEH
SPECI KMEH 201706Z AUTO 00000KT 1 3/4SM RA BR OVC021 02/01 A2983 RMK
AO2 P0003 T00170011





000
SAUS46 KPDT 201656
MTRMEH
METAR KMEH 201656Z AUTO 00000KT 2SM -RA BR OVC025 02/01 A2983 RMK
AO2 VIS 1 1/4V3 SLP122 P0004 T00170011





000
SAUS46 KPDT 201646
MTRMEH
SPECI KMEH 201642Z AUTO 00000KT 2 1/2SM -RA BR OVC029 02/01 A2983
RMK AO2 VIS 1 3/4V3 P0002 T00170011





000
SAUS46 KPDT 201556
MTRMEH
METAR KMEH 201556Z AUTO 00000KT 9SM -RA OVC048 02/01 A2983 RMK AO2
RAE09B40UPB19E34SNB09E19 SLP120 P0004 T00170006





000
SAUS46 KPDT 201508
MTRMEH
SPECI KMEH 201508Z AUTO 00000KT 4SM -RA BR FEW009 OVC030 02/01 A2984
RMK AO2 P0003 T00170006





000
SAUS46 KPDT 201456
MTRMEH
METAR KMEH 201456Z AUTO 00000KT 3SM RA BR OVC024 02/01 A2984 RMK AO2
SLP126 P0003 60004 T00170006 56016





000
SAUS46 KPDT 201445
MTRMEH
SPECI KMEH 201445Z AUTO 00000KT 5SM -RA BR OVC026 02/01 A2984 RMK
AO2 P0001 T00170006





000
SAUS46 KPDT 201413
MTRMEH
SPECI KMEH 201413Z AUTO 00000KT 10SM -RA OVC031 02/01 A2985 RMK AO2
P0000 T00170006





000
SAUS46 KPDT 201356
MTRMEH
METAR KMEH 201356Z AUTO 00000KT 9SM -RA OVC025 02/01 A2985 RMK AO2
RAB02 SLP129 P0001 T00170006





000
SAUS46 KPDT 201321
MTRMEH
SPECI KMEH 201321Z AUTO 00000KT 10SM -RA OVC029 02/01 A2986 RMK AO2
RAB02 P0000 T00170006





000
SAUS46 KPDT 201303 COR
MTRMEH
METAR KMEH 201256Z AUTO 00000KT 10SM FEW025 OVC037 02/01 A2987 RMK
AO2 SLP135 T00170006





000
SAUS46 KPDT 201156
MTRMEH
METAR KMEH 201156Z AUTO 00000KT 10SM FEW026 FEW035 OVC043 01/01
A2990 RMK AO2 SLP142 70028 I6000 T00110006 10017 21006 58010





000
SAUS46 KPDT 201057
MTRMEH
METAR KMEH 201056Z AUTO 00000KT 10SM OVC041 01/00 A2992 RMK AO2
SLP148 T00060000





000
SAUS46 KPDT 201040 COR
MTRMEH
SPECI KMEH 201033Z AUTO 00000KT 10SM FEW028 OVC033 01/00 A2992 RMK
AO2 T00110000





000
SAUS46 KPDT 201024
MTRMEH
SPECI KMEH 201023Z AUTO 00000KT 10SM OVC028 01/00 A2993 RMK AO2
T00110000





000
SAUS46 KPDT 201003 COR
MTRMEH
METAR KMEH 200956Z AUTO 00000KT 10SM SCT033 BKN042 OVC049 01/00
A2993 RMK AO2 SLP151 T00110000





000
SAUS46 KPDT 201003 COR
MTRMEH
METAR KMEH 200956Z AUTO 00000KT 10SM SCT033 BKN042 OVC049 01/00
A2993 RMK AO2 SLP151 T00110000





000
SAUS46 KPDT 200857
MTRMEH
METAR KMEH 200856Z AUTO 00000KT 10SM BKN070 OVC095 01/00 A2993 RMK
AO2 SLP155 I3000 T00060000 58015





000
SAUS46 KPDT 200756
MTRMEH
METAR KMEH 200756Z AUTO 00000KT 10SM FEW070 01/M01 A2995 RMK AO2
SLP160 T00061006 400331011





000
SAUS46 KPDT 200756
MTRMEH
METAR KMEH 200756Z AUTO 00000KT 10SM FEW070 01/M01 A2995 RMK AO2
SLP160 T00061006 400331011





000
SAUS46 KPDT 200656
MTRMEH
METAR KMEH 200656Z AUTO 00000KT 10SM CLR 01/M01 A2996 RMK AO2 SLP166
I1000 T00061006





000
SAUS46 KPDT 200603 COR
MTRMEH
METAR KMEH 200556Z AUTO 00000KT 10SM CLR M01/M02 A2998 RMK AO2
SLP172 I6002 T10061017 10028 21011 58003





000
SAUS46 KPDT 200456
MTRMEH
METAR KMEH 200456Z AUTO 00000KT 10SM FEW001 M01/M02 A3000 RMK AO2
SLP181 I1001 T10111022





000
SAUS46 KPDT 200444
MTRMEH
SPECI KMEH 200442Z AUTO 00000KT 10SM FEW001 M01/M02 A3001 RMK AO2
I1000 T10111022





000
SAUS46 KPDT 200403 COR
MTRMEH
METAR KMEH 200356Z AUTO 00000KT 10SM CLR M01/M02 A3001 RMK AO2
SLP184 I1000 T10111022





000
SAUS46 KPDT 200403 COR
MTRMEH
METAR KMEH 200356Z AUTO 00000KT 10SM CLR M01/M02 A3001 RMK AO2
SLP184 I1000 T10111022





000
SAUS46 KPDT 200303 COR
MTRMEH
METAR KMEH 200256Z AUTO 00000KT 10SM CLR M01/M02 A2999 RMK AO2
SLP176 I1001 I3001 T10061017 50002





000
SAUS46 KPDT 200303
MTRMEH
SPECI KMEH 200303Z AUTO 00000KT 8SM FEW001 M01/M02 A2999 RMK AO2
T10061017





000
SAUS46 KPDT 200237 COR
MTRMEH
SPECI KMEH 200233Z AUTO 00000KT 10SM SCT002 00/M02 A2999 RMK AO2
I1000 T00001017





000
SAUS46 KPDT 200226
MTRMEH
SPECI KMEH 200226Z AUTO 00000KT 2 1/2SM BR SCT002 00/M01 A2999 RMK
AO2 I1000 T00001011





000
SAUS46 KPDT 200224
MTRMEH
SPECI KMEH 200224Z AUTO 00000KT 1 3/4SM BR BKN002 00/M02 A3000 RMK
AO2 I1000 T00001017





000
SAUS46 KPDT 200223 COR
MTRMEH
SPECI KMEH 200216Z AUTO 00000KT 2 1/2SM BR BKN002 M01/M02 A3000 RMK
AO2 I1000 T10061017





000
SAUS46 KPDT 200209
MTRMEH
SPECI KMEH 200207Z AUTO 00000KT 10SM FEW002 M01/M01 A3000 RMK AO2
T10061011





000
SAUS46 KPDT 200158
MTRMEH
METAR KMEH 200156Z AUTO 00000KT 7SM CLR M01/M02 A3000 RMK AO2 SLP179
T10061017





000
SAUS46 KPDT 200138
MTRMEH
SPECI KMEH 200138Z AUTO 00000KT 10SM SCT001 M01/M01 A3000 RMK AO2
T10061011





000
SAUS46 KPDT 200138
MTRMEH
SPECI KMEH 200138Z AUTO 00000KT 10SM SCT001 M01/M01 A3000 RMK AO2
T10061011





000
SAUS46 KPDT 200130
MTRMEH
SPECI KMEH 200130Z AUTO 00000KT 2 1/2SM BR SCT001 SCT033 M01/M01
A3000 RMK AO2 T10061011





000
SAUS46 KPDT 200130
MTRMEH
SPECI KMEH 200130Z AUTO 00000KT 2 1/2SM BR SCT001 SCT033 M01/M01
A3000 RMK AO2 T10061011





000
SAUS46 KPDT 200122
MTRMEH
SPECI KMEH 200122Z AUTO 00000KT 2 1/2SM BR BKN001 BKN031 00/M01
A3000 RMK AO2 T00001011





000
SAUS46 KPDT 200122
MTRMEH
SPECI KMEH 200122Z AUTO 00000KT 2 1/2SM BR BKN001 BKN031 00/M01
A3000 RMK AO2 T00001011





000
SAUS46 KPDT 200111
MTRMEH
SPECI KMEH 200111Z AUTO 00000KT 6SM BR SCT001 BKN032 00/M01 A3000
RMK AO2 T00001006





000
SAUS46 KPDT 200056
MTRMEH
METAR KMEH 200056Z AUTO 00000KT 10SM BKN001 01/M01 A3000 RMK AO2
SLP177 T00061006





000
SAUS46 KPDT 200045
MTRMEH
SPECI KMEH 200045Z AUTO 00000KT 3SM BR OVC001 01/M01 A2999 RMK AO2
T00061006





000
SAUS46 KPDT 200039
MTRMEH
SPECI KMEH 200039Z AUTO 00000KT 1 3/4SM BR OVC001 01/00 A2999 RMK
AO2 T00060000





000
SAUS46 KPDT 200032
MTRMEH
SPECI KMEH 200031Z AUTO 00000KT 2SM BR BKN001 01/01 A2999 RMK AO2
VIS 1V5 T00110006





000
SAUS46 KPDT 200022
MTRMEH
SPECI KMEH 200022Z AUTO 00000KT 5SM BR BKN003 BKN022 BKN034 02/01
A2998 RMK AO2 T00170011





000
SAUS46 KPDT 200012
MTRMEH
SPECI KMEH 200011Z AUTO 00000KT 10SM SCT003 BKN023 BKN034 02/02
A2998 RMK AO2 T00220017





000
SAUS46 KPDT 200003 COR
MTRMEH
METAR KMEH 192356Z AUTO 00000KT 10SM FEW024 SCT031 BKN038 02/02
A2998 RMK AO2 SLP169 60012 T00220017 10033 20011 51013





000
SAUS46 KPDT 192256
MTRMEH
METAR KMEH 192256Z AUTO 00000KT 10SM FEW021 SCT030 BKN040 03/02
A2997 RMK AO2 SLP164 T00330022





000
SAUS46 KPDT 192241
MTRMEH
SPECI KMEH 192239Z AUTO 00000KT 10SM FEW011 SCT025 BKN041 03/02
A2997 RMK AO2 T00280017





000
SAUS46 KPDT 192212
MTRMEH
SPECI KMEH 192212Z AUTO 00000KT 10SM FEW010 FEW014 BKN027 03/02
A2996 RMK AO2 T00330017





000
SAUS46 KPDT 192156
MTRMEH
METAR KMEH 192156Z AUTO 00000KT 10SM FEW029 03/01 A2996 RMK AO2
SLP159 T00280011





000
SAUS46 KPDT 192103 COR
MTRMEH
METAR KMEH 192056Z AUTO 00000KT 10SM FEW038 OVC095 02/01 A2994 RMK
AO2 RAE1959SNB1959E42 SLP156 P0006 60012 T00170006 50006





000
SAUS46 KPDT 192056 COR
MTRMEH
SPECI KMEH 192049Z AUTO 00000KT 10SM FEW019 OVC095 02/00 A2994 RMK
AO2 RAE1959SNB1959E42 P0006 T00170000





000
SAUS46 KPDT 192050 COR
MTRMEH
SPECI KMEH 192049Z AUTO 00000KT 10SM FEW019 OVC095 02/00 A2994 RMK
AO2 RAE1959SNB1959E42 P0006 T00170000





000
SAUS46 KPDT 192035
MTRMEH
SPECI KMEH 192035Z AUTO 00000KT 3SM -SN BR BKN016 BKN044 OVC080
01/01 A2994 RMK AO2 RAE1959SNB1959 P0006 T00110006





000
SAUS46 KPDT 192031
MTRMEH
SPECI KMEH 192030Z AUTO 00000KT 1SM -SN BR VV016 01/01 A2994 RMK AO2
RAE1959SNB1959 P0006 T00110006





000
SAUS46 KPDT 192021
MTRMEH
SPECI KMEH 192021Z AUTO 00000KT 3/4SM -SN BR VV011 01/00 A2994 RMK
AO2 RAE1959SNB1959 P0005 T00110000





000
SAUS46 KPDT 192010 COR
MTRMEH
SPECI KMEH 192004Z AUTO VRB03KT 1 1/4SM -SN BR OVC008 02/01 A2995
RMK AO2 RAE1959SNB1959 P0002 T00170006





000
SAUS46 KPDT 191957
MTRMEH
METAR KMEH 191956Z AUTO VRB04KT 2 1/2SM -RA BR OVC006 03/02 A2994
RMK AO2 RAB12SNE12 SLP154 P0002 T00280017





000
SAUS46 KPDT 191957
MTRMEH
METAR KMEH 191956Z AUTO VRB04KT 2 1/2SM -RA BR OVC006 03/02 A2994
RMK AO2 RAB12SNE12 SLP154 P0002 T00280017





000
SAUS46 KPDT 191905
MTRMEH
SPECI KMEH 191905Z AUTO 00000KT 4SM -SN BR BKN006 OVC012 02/01 A2994
RMK AO2 P0001 T00220011





000
SAUS46 KPDT 191900
MTRMEH
SPECI KMEH 191858Z AUTO 00000KT 2SM -SN BR SCT006 OVC012 02/01 A2994
RMK AO2 VIS 1 1/4V5 P0000 T00170011





000
SAUS46 KPDT 191856
MTRMEH
METAR KMEH 191856Z AUTO 00000KT 1 3/4SM -SN BR BKN006 OVC012 02/01
A2994 RMK AO2 RAB1757E01B22E50SNB50 SLP154 P0004 T00170011





000
SAUS46 KPDT 191842
MTRMEH
SPECI KMEH 191842Z AUTO 00000KT 3SM -RA BR BKN006 OVC010 02/02 A2994
RMK AO2 RAB1757E01B22 P0002 T00220017





000
SAUS46 KPDT 191833
MTRMEH
SPECI KMEH 191833Z AUTO VRB04KT 2 1/2SM -RA BR SCT007 BKN010 OVC023
03/02 A2993 RMK AO2 VIS 2V5 RAB1757E01B22 P0001 T00280017





000
SAUS46 KPDT 191826
MTRMEH
SPECI KMEH 191824Z AUTO 00000KT 10SM -RA SCT009 OVC021 03/02 A2993
RMK AO2 RAB1757E01B22 P0000 T00280022





000
SAUS46 KPDT 191756
MTRMEH
METAR KMEH 191756Z AUTO 00000KT 8SM OVC022 03/02 A2992 RMK AO2 RAE56
SLP147 P0000 60016 T00280017 10028 20017 53010





000
SAUS46 KPDT 191732
MTRMEH
SPECI KMEH 191732Z AUTO 00000KT 7SM -RA BKN025 OVC035 02/02 A2992
RMK AO2 P0000 T00220017





000
SAUS46 KPDT 191718
MTRMEH
SPECI KMEH 191718Z AUTO 00000KT 10SM -RA SCT027 OVC035 02/01 A2991
RMK AO2 P0000 T00220011





000
SAUS46 KPDT 191656
MTRMEH
METAR KMEH 191656Z AUTO 00000KT 7SM -RA BKN028 OVC040 02/01 A2990
RMK AO2 SLP141 P0001 T00220011





000
SAUS46 KPDT 191618
MTRMEH
SPECI KMEH 191618Z AUTO 00000KT 7SM -RA FEW008 OVC030 02/01 A2990
RMK AO2 P0000 T00220011





000
SAUS46 KPDT 191556
MTRMEH
METAR KMEH 191556Z AUTO VRB03KT 6SM -RA BR SCT009 OVC026 02/01 A2989
RMK AO2 SLP137 P0004 T00220011





000
SAUS46 KPDT 191534
MTRMEH
SPECI KMEH 191534Z AUTO 00000KT 7SM -RA FEW009 OVC027 02/01 A2989
RMK AO2 P0003 T00220011





000
SAUS46 KPDT 191457
MTRMEH
METAR KMEH 191456Z AUTO 00000KT 7SM -RA FEW010 BKN025 OVC038 02/01
A2989 RMK AO2 SLP135 P0003 60011 T00220011 58000





000
SAUS46 KPDT 191357
MTRMEH
METAR KMEH 191356Z AUTO 00000KT 10SM -RA OVC034 02/01 A2989 RMK AO2
SLP135 P0002 T00220011





000
SAUS46 KPDT 191306
MTRMEH
SPECI KMEH 191306Z AUTO 00000KT 6SM -RA BR OVC030 02/01 A2989 RMK
AO2 P0000 T00220011





000
SAUS46 KPDT 191306
MTRMEH
SPECI KMEH 191306Z AUTO 00000KT 6SM -RA BR OVC030 02/01 A2989 RMK
AO2 P0000 T00220011





000
SAUS46 KPDT 191257
MTRMEH
METAR KMEH 191256Z AUTO 00000KT 5SM -RA BR OVC028 02/01 A2989 RMK
AO2 SLP135 P0006 T00220011





000
SAUS46 KPDT 191236
MTRMEH
SPECI KMEH 191234Z AUTO 00000KT 7SM -RA OVC029 02/02 A2989 RMK AO2
P0003 T00220017





000
SAUS46 KPDT 191156
MTRMEH
METAR KMEH 191156Z AUTO 00000KT 4SM -RA BR OVC031 03/01 A2989 RMK
AO2 UPB22E24 SLP135 P0003 60003 70003 T00280011 10039 20028 55003





000
SAUS46 KPDT 191056
MTRMEH
METAR KMEH 191056Z AUTO 00000KT 10SM -RA BKN047 OVC055 03/01 A2988
RMK AO2 RAE01B48 SLP132 P0000 T00330006





000
SAUS46 KPDT 190956
MTRMEH
METAR KMEH 190956Z AUTO 00000KT 10SM -RA FEW047 OVC060 03/01 A2989
RMK AO2 RAE32B52 SLP133 P0000 T00330006





000
SAUS46 KPDT 190956
MTRMEH
METAR KMEH 190956Z AUTO 00000KT 10SM -RA FEW047 OVC060 03/01 A2989
RMK AO2 RAE32B52 SLP133 P0000 T00330006





000
SAUS46 KPDT 190856
MTRMEH
METAR KMEH 190856Z AUTO 00000KT 10SM -RA BKN047 OVC065 03/01 A2990
RMK AO2 SLP137 P0000 60000 T00280006 56006





000
SAUS46 KPDT 190756
MTRMEH
METAR KMEH 190756Z AUTO 00000KT 10SM -RA BKN040 OVC049 03/01 A2991
RMK AO2 RAB30 SLP141 P0000 T00330006 400441006





000
SAUS46 KPDT 190656
MTRMEH
METAR KMEH 190656Z AUTO 00000KT 10SM OVC065 03/00 A2991 RMK AO2
SLP141 T00330000





000
SAUS46 KPDT 190556
MTRMEH
METAR KMEH 190556Z AUTO 00000KT 10SM OVC065 03/01 A2992 RMK AO2
SLP146 60000 T00280006 10033 20028 55003





000
SAUS46 KPDT 190456
MTRMEH
METAR KMEH 190456Z AUTO VRB03KT 10SM FEW060 BKN085 BKN110 03/00
A2991 RMK AO2 RAB26E43 SLP146 P0000 T00280000





000
SAUS46 KPDT 190357
MTRMEH
METAR KMEH 190356Z AUTO 00000KT 10SM SCT070 BKN100 03/00 A2993 RMK
AO2 SLP153 T00280000





000
SAUS46 KPDT 190357
MTRMEH
METAR KMEH 190356Z AUTO 00000KT 10SM SCT070 BKN100 03/00 A2993 RMK
AO2 SLP153 T00280000





000
SAUS46 KPDT 190256
MTRMEH
METAR KMEH 190256Z AUTO 00000KT 10SM BKN070 OVC090 03/01 A2993 RMK
AO2 SLP153 T00280006 58007





    US Dept of Commerce
    National Oceanic and Atmospheric Administration
    National Weather Service
    1325 East West Highway
    Silver Spring, MD 20910
    Page Author: NWS Internet Services Team
Disclaimer
Information Quality
Credits
Glossary
Privacy Policy
Freedom of Information Act (FOIA)
About Us
Career Opportunities